Terminal Aerodrome Forecast
Issued by NWS Tiyan, Guam

Home | Current Version | Previous Version | Text Only | Print | Product List | Glossary On
Versions: 1 2 3 4 5 6 7 8 9 10 11 12 13
000
FTPQ31 PGUM 220520
TAFGUM
TAF
PGUM 220520Z 2206/2312 10010KT P6SM VCSH SCT019 SCT040=

USA.gov is the U.S. government's official web portal to all federal, state and local government web resources and services.